Pringle, SD (57773)

1:37 PM MST on March 02, 2015 (GMT -0700)
RAWS NGPA PORTABLE SD US | Change Station
CLOSE
Current Station
Personal Weather Station
Location: Custer, SD
Elevation: 5702 ft
Nearby Weather Stations
Active Advisory: Winter Weather Advisory

Elev 5702 ft 43.73 °N, 103.83 °W | Updated 42 minutes ago

Partly Cloudy
Partly Cloudy
37 °F
Feels Like 32 °F
N
7
Wind Variable Wind from SSW
Gusts 12.0 mph

Today
High -- | Low -- °F
--% Chance of Precip.
Yesterday
High -- | Low -- °F
Precip. -- in
6:29 AM 5:44 PM
Waxing Gibbous, 93% visible
Pressure 29.87 in
Visibility 10.0 miles
Clouds Clear
Windchill 32 °F
Dew Point 19 °F
Humidity 48%
Rainfall 0.00 in
Snow Depth Not available.
UV 5 out of 12
Pollen 1.20 out of 12
Air Quality Not available.
Flu Activity Not available.
METAR KCUT 021953Z AUTO 24007KT 10SM CLR 03/M07 A2974 RMK AO2 SLP114 T00281067

More Conditions Fewer Conditions

Pressure 29.87 in
Visibility 10.0 miles
Clouds Clear
Windchill 32 °F
Dew Point 19 °F
Humidity 48%
Rainfall 0.00 in
Snow Depth Not available.
UV 5 out of 12
Pollen 1.20 out of 12
Air Quality Not available.
Flu Activity Not available.
METAR KCUT 021953Z AUTO 24007KT 10SM CLR 03/M07 A2974 RMK AO2 SLP114 T00281067

More Conditions Fewer Conditions

10-Day Weather Forecast

Almanac

Astronomy

Mar. 02, 2015 Rise Set
Actual Time
Civil Twilight
Nautical Twilight
Astronomical Twilight
Moon
Length of Visible Light
Length of Day
Tomorrow will be .
, % of the Moon is Illuminated

Today's Extremes

State Highs State Lows

Community

WunderPhotos

Upload Photos

1,801,939 photos uploaded!

WunderBlogs® & News

Nearby

Air Quality

  Air Quality AQ Index Pollutant
Not available.

Snow Depth

Station Depth Elevation

Earthquake Activity

City Distance Mag. Time & Date
Minimum magnitude displayed is 2.5.

Coastal Water Temperatures

Place Temperature

Nearby Weather Stations

Winter Weather Advisory
Statement as of 1:29 PM MST on March 02, 2015

... Winter Weather Advisory remains in effect from 8 PM this
evening to 5 PM MST Tuesday...

A Winter Weather Advisory remains in effect from 8 PM this
evening to 5 PM MST Tuesday.

* Timing... this evening into Tuesday afternoon.

* Main hazard... 3 to 6 inches of snow.

* Other conditions... areas of blowing and drifting snow will occur
in open areas on gusty northerly winds.

* Impacts... travel will be hazardous at times.

Precautionary/preparedness actions...

This Winter Weather Advisory means snow and blowing snow will
create hazardous conditions. Use caution when outdoors or
traveling.